sensor_id;sensor_type;location;lat;lon;timestamp;pressure;altitude;pressure_sealevel;temperature;humidity
15405;BME280;7801;48.124;11.590;2022-08-01T00:02:12;95425.28;;;22.71;66.21
15405;BME280;7801;48.124;11.590;2022-08-01T00:04:37;95421.06;;;22.74;66.96
15405;BME280;7801;48.124;11.590;2022-08-01T00:07:03;95426.47;;;22.74;66.53
15405;BME280;7801;48.124;11.590;2022-08-01T00:09:28;95429.19;;;22.74;66.36
15405;BME280;7801;48.124;11.590;2022-08-01T00:11:54;95429.53;;;22.72;65.55
15405;BME280;7801;48.124;11.590;2022-08-01T00:14:19;95424.09;;;22.69;65.96
15405;BME280;7801;48.124;11.590;2022-08-01T00:16:45;95428.72;;;22.68;66.00
15405;BME280;7801;48.124;11.590;2022-08-01T00:19:10;95436.47;;;22.70;nan
15405;BME280;7801;48.124;11.590;2022-08-01T00:21:36;95430.63;;;22.64;65.59
15405;BME280;7801;48.124;11.590;2022-08-01T00:24:01;95433.34;;;22.68;65.89
15405;BME280;7801;48.124;11.590;2022-08-01T00:26:26;95438.31;;;22.62;64.99
15405;BME280;7801;48.124;11.590;2022-08-01T00:28:52;95445.72;;;22.65;65.89
15405;BME280;7801;48.124;11.590;2022-08-01T00:31:17;95436.75;;;22.61;65.34
15405;BME280;7801;48.124;11.590;2022-08-01T00:33:42;95444.00;;;22.53;65.26
15405;BME280;7801;48.124;11.590;2022-08-01T00:36:07;95446.03;;;22.60;66.27
15405;BME280;7801;48.124;11.590;2022-08-01T00:38:33;95435.87;;;22.53;65.14
15405;BME280;7801;48.124;11.590;2022-08-01T00:40:58;95445.97;;;22.56;66.03
15405;BME280;7801;48.124;11.590;2022-08-01T00:43:24;95442.94;;;22.61;66.58
15405;BME280;7801;48.124;11.590;2022-08-01T00:45:49;95436.72;;;22.57;65.30
15405;BME280;7801;48.124;11.590;2022-08-01T00:48:15;95435.56;;;22.58;64.33
15405;BME280;7801;48.124;11.590;2022-08-01T00:50:40;95441.72;;;22.55;64.71
15405;BME280;7801;48.124;11.590;2022-08-01T00:53:06;95442.53;;;22.59;65.62
15405;BME280;7801;48.124;11.590;2022-08-01T00:55:32;95441.38;;;22.60;65.70
15405;BME280;7801;48.124;11.590;2022-08-01T00:57:58;95438.31;;;22.62;65.94
15405;BME280;7801;48.124;11.590;2022-08-01T01:00:25;95435.19;;;22.60;64.48
15405;BME280;7801;48.124;11.590;2022-08-01T01:02:50;95438.62;;;22.57;63.83
15405;BME280;7801;48.124;11.590;2022-08-01T01:05:16;95439.84;;;22.59;64.50
15405;BME280;7801;48.124;11.590;2022-08-01T01:07:48;95433.19;;;22.53;63.49
15405;BME280;7801;48.124;11.590;2022-08-01T01:10:30;95436.34;;;22.59;65.39
15405;BME280;7801;48.124;11.590;2022-08-01T01:13:04;95439.38;;;22.54;64.09
15405;BME280;7801;48.124;11.590;2022-08-01T01:15:37;95441.72;;;22.55;63.68
15405;BME280;7801;48.124;11.590;2022-08-01T01:18:16;95450.97;;;22.54;64.42
15405;BME280;7801;48.124;11.590;2022-08-01T01:21:11;95448.22;;;22.51;63.74
15405;BME280;7801;48.124;11.590;2022-08-01T01:31:38;95450.59;;;22.56;65.31
15405;BME280;7801;48.124;11.590;2022-08-01T01:34:06;95447.06;;;22.52;64.52
15405;BME280;7801;48.124;11.590;2022-08-01T01:36:33;95447.44;;;22.50;65.07
15405;BME280;7801;48.124;11.590;2022-08-01T01:39:00;95453.19;;;22.49;64.20
15405;BME280;7801;48.124;11.590;2022-08-01T01:41:26;95445.44;;;22.47;65.49
15405;BME280;7801;48.124;11.590;2022-08-01T01:43:53;95452.41;;;22.48;64.05
15405;BME280;7801;48.124;11.590;2022-08-01T01:46:22;95457.34;;;22.39;63.81
15405;BME280;7801;48.124;11.590;2022-08-01T01:48:49;95454.69;;;22.46;65.05
15405;BME280;7801;48.124;11.590;2022-08-01T01:51:16;95455.12;;;22.48;65.04
15405;BME280;7801;48.124;11.590;2022-08-01T01:53:43;95453.06;;;22.38;63.99
15405;BME280;7801;48.124;11.590;2022-08-01T01:56:11;95458.41;;;22.35;63.61
15405;BME280;7801;48.124;11.590;2022-08-01T01:58:37;95456.81;;;22.30;64.03
15405;BME280;7801;48.124;11.590;2022-08-01T02:01:04;95454.69;;;22.43;65.69
15405;BME280;7801;48.124;11.590;2022-08-01T02:03:32;95456.91;;;22.37;64.96
15405;BME280;7801;48.124;11.590;2022-08-01T02:06:05;95456.03;;;22.29;63.87
15405;BME280;7801;48.124;11.590;2022-08-01T02:08:32;95458.06;;;22.36;64.99
15405;BME280;7801;48.124;11.590;2022-08-01T02:10:59;95455.66;;;22.31;63.08
15405;BME280;7801;48.124;11.590;2022-08-01T02:13:47;95459.94;;;22.32;64.15
15405;BME280;7801;48.124;11.590;2022-08-01T02:16:13;95466.06;;;22.29;63.68
15405;BME280;7801;48.124;11.590;2022-08-01T02:18:40;95457.28;;;22.36;65.49
15405;BME280;7801;48.124;11.590;2022-08-01T02:21:09;95467.19;;;22.28;63.05
15405;BME280;7801;48.124;11.590;2022-08-01T02:23:38;95464.59;;;22.35;64.81
15405;BME280;7801;48.124;11.590;2022-08-01T02:26:10;95468.81;;;22.33;63.54
15405;BME280;7801;48.124;11.590;2022-08-01T02:28:47;95462.28;;;22.34;64.64
15405;BME280;7801;48.124;11.590;2022-08-01T02:31:17;95464.50;;;22.28;63.19
15405;BME280;7801;48.124;11.590;2022-08-01T02:33:47;95473.37;;;22.28;63.75
15405;BME280;7801;48.124;11.590;2022-08-01T02:36:16;95470.97;;;22.20;62.19
15405;BME280;7801;48.124;11.590;2022-08-01T02:38:44;95466.78;;;22.26;63.38
15405;BME280;7801;48.124;11.590;2022-08-01T02:41:13;95471.09;;;22.31;64.54
15405;BME280;7801;48.124;11.590;2022-08-01T02:43:45;95473.81;;;22.31;63.92
15405;BME280;7801;48.124;11.590;2022-08-01T02:46:20;95474.59;;;22.31;64.11
15405;BME280;7801;48.124;11.590;2022-08-01T02:48:47;95463.78;;;22.31;64.12
15405;BME280;7801;48.124;11.590;2022-08-01T02:51:16;95466.91;;;22.33;63.09
15405;BME280;7801;48.124;11.590;2022-08-01T02:53:43;95476.88;;;22.29;62.86
15405;BME280;7801;48.124;11.590;2022-08-01T02:56:11;95474.59;;;22.31;63.82
15405;BME280;7801;48.124;11.590;2022-08-01T02:58:38;95479.22;;;22.31;63.94
15405;BME280;7801;48.124;11.590;2022-08-01T03:01:06;95475.31;;;22.28;63.54
15405;BME280;7801;48.124;11.590;2022-08-01T03:03:33;95481.44;;;22.25;63.21
15405;BME280;7801;48.124;11.590;2022-08-01T03:05:59;95480.63;;;22.21;62.46
15405;BME280;7801;48.124;11.590;2022-08-01T03:08:28;95478.66;;;22.18;62.83
15405;BME280;7801;48.124;11.590;2022-08-01T03:10:55;95473.19;;;22.14;62.52
15405;BME280;7801;48.124;11.590;2022-08-01T03:13:22;95477.16;;;22.20;63.98
15405;BME280;7801;48.124;11.590;2022-08-01T03:15:49;95475.94;;;22.18;62.81
15405;BME280;7801;48.124;11.590;2022-08-01T03:18:16;95482.84;;;22.15;62.30
15405;BME280;7801;48.124;11.590;2022-08-01T03:20:42;95481.72;;;22.16;63.71
15405;BME280;7801;48.124;11.590;2022-08-01T03:23:10;95484.53;;;22.23;64.19
15405;BME280;7801;48.124;11.590;2022-08-01T03:25:39;95481.00;;;22.19;61.96
15405;BME280;7801;48.124;11.590;2022-08-01T03:28:07;95492.16;;;22.18;62.90
15405;BME280;7801;48.124;11.590;2022-08-01T03:30:36;95486.63;;;22.11;63.86
15405;BME280;7801;48.124;11.590;2022-08-01T03:33:02;95489.41;;;22.14;63.89
15405;BME280;7801;48.124;11.590;2022-08-01T03:35:30;95483.28;;;22.17;64.15
15405;BME280;7801;48.124;11.590;2022-08-01T03:37:59;95487.19;;;22.20;64.19
15405;BME280;7801;48.124;11.590;2022-08-01T03:40:37;95489.81;;;22.16;62.72
15405;BME280;7801;48.124;11.590;2022-08-01T03:43:07;95487.78;;;22.10;62.08
15405;BME280;7801;48.124;11.590;2022-08-01T03:45:36;95496.25;;;22.08;61.54
15405;BME280;7801;48.124;11.590;2022-08-01T03:48:14;95487.34;;;22.08;61.66
15405;BME280;7801;48.124;11.590;2022-08-01T03:50:43;95492.34;;;22.06;62.93
15405;BME280;7801;48.124;11.590;2022-08-01T03:53:11;95498.06;;;22.01;62.77
15405;BME280;7801;48.124;11.590;2022-08-01T03:55:39;95500.78;;;22.01;63.05
15405;BME280;7801;48.124;11.590;2022-08-01T03:58:06;95502.72;;;22.04;64.12
15405;BME280;7801;48.124;11.590;2022-08-01T04:00:33;95504.72;;;22.07;62.32
15405;BME280;7801;48.124;11.590;2022-08-01T04:02:59;95515.06;;;22.01;61.42
15405;BME280;7801;48.124;11.590;2022-08-01T04:05:25;95513.53;;;22.04;62.17
15405;BME280;7801;48.124;11.590;2022-08-01T04:07:50;95508.53;;;22.02;61.93
15405;BME280;7801;48.124;11.590;2022-08-01T04:10:23;95515.09;;;22.05;62.55
15405;BME280;7801;48.124;11.590;2022-08-01T04:12:49;95519.69;;;22.01;62.20
15405;BME280;7801;48.124;11.590;2022-08-01T04:15:14;95512.56;;;21.92;62.60
15405;BME280;7801;48.124;11.590;2022-08-01T04:17:40;95518.75;;;21.93;62.42
15405;BME280;7801;48.124;11.590;2022-08-01T04:20:05;95520.69;;;21.92;62.52
15405;BME280;7801;48.124;11.590;2022-08-01T04:22:31;95519.91;;;21.92;62.19
15405;BME280;7801;48.124;11.590;2022-08-01T04:24:57;95527.81;;;22.01;61.46
15405;BME280;7801;48.124;11.590;2022-08-01T04:27:27;95525.09;;;22.01;62.91
15405;BME280;7801;48.124;11.590;2022-08-01T04:29:56;95527.03;;;22.00;61.93
15405;BME280;7801;48.124;11.590;2022-08-01T04:32:23;95536.25;;;21.99;63.24
15405;BME280;7801;48.124;11.590;2022-08-01T04:34:50;95543.84;;;21.93;61.51
15405;BME280;7801;48.124;11.590;2022-08-01T04:37:16;95538.88;;;21.95;62.59
15405;BME280;7801;48.124;11.590;2022-08-01T04:39:45;95545.78;;;21.93;62.52
15405;BME280;7801;48.124;11.590;2022-08-01T04:42:13;95537.19;;;21.87;61.60
15405;BME280;7801;48.124;11.590;2022-08-01T04:44:41;95541.16;;;21.93;62.62
15405;BME280;7801;48.124;11.590;2022-08-01T04:47:11;95544.16;;;21.88;61.98
15405;BME280;7801;48.124;11.590;2022-08-01T04:49:39;95547.47;;;21.78;62.35
15405;BME280;7801;48.124;11.590;2022-08-01T04:52:05;95549.84;;;21.83;63.23
15405;BME280;7801;48.124;11.590;2022-08-01T04:54:33;95548.00;;;21.87;62.48
15405;BME280;7801;48.124;11.590;2022-08-01T04:57:02;95551.19;;;21.93;62.08
15405;BME280;7801;48.124;11.590;2022-08-01T04:59:32;95550.03;;;21.94;61.91
15405;BME280;7801;48.124;11.590;2022-08-01T05:02:18;95548.13;;;21.94;62.15
15405;BME280;7801;48.124;11.590;2022-08-01T05:04:45;95549.13;;;21.86;62.05
15405;BME280;7801;48.124;11.590;2022-08-01T05:07:14;95551.75;;;21.83;62.12
15405;BME280;7801;48.124;11.590;2022-08-01T05:09:41;95558.34;;;21.82;62.88
15405;BME280;7801;48.124;11.590;2022-08-01T05:12:09;95556.22;;;21.72;61.37
15405;BME280;7801;48.124;11.590;2022-08-01T05:14:36;95554.06;;;21.81;62.46
15405;BME280;7801;48.124;11.590;2022-08-01T05:17:03;95555.44;;;21.71;62.42
15405;BME280;7801;48.124;11.590;2022-08-01T05:19:36;95559.88;;;21.60;63.74
15405;BME280;7801;48.124;11.590;2022-08-01T05:22:04;95557.94;;;21.60;63.15
15405;BME280;7801;48.124;11.590;2022-08-01T05:24:31;95551.34;;;21.58;63.14
15405;BME280;7801;48.124;11.590;2022-08-01T05:26:56;95563.16;;;21.73;63.78
15405;BME280;7801;48.124;11.590;2022-08-01T05:29:22;95559.41;;;21.77;63.57
15405;BME280;7801;48.124;11.590;2022-08-01T05:31:47;95564.94;;;21.65;62.79
15405;BME280;7801;48.124;11.590;2022-08-01T05:34:12;95566.88;;;21.65;62.03
15405;BME280;7801;48.124;11.590;2022-08-01T05:36:39;95567.53;;;21.58;62.36
15405;BME280;7801;48.124;11.590;2022-08-01T05:39:05;95567.53;;;21.58;62.58
15405;BME280;7801;48.124;11.590;2022-08-01T05:41:32;95570.78;;;21.67;62.79
15405;BME280;7801;48.124;11.590;2022-08-01T05:43:57;95571.28;;;21.73;62.89
15405;BME280;7801;48.124;11.590;2022-08-01T05:46:23;95573.37;;;21.60;62.85
15405;BME280;7801;48.124;11.590;2022-08-01T05:48:48;95571.69;;;21.75;62.92
15405;BME280;7801;48.124;11.590;2022-08-01T05:51:13;95573.34;;;21.79;63.27
15405;BME280;7801;48.124;11.590;2022-08-01T05:53:39;95581.00;;;21.77;62.75
15405;BME280;7801;48.124;11.590;2022-08-01T05:56:04;95577.47;;;21.73;62.45
15405;BME280;7801;48.124;11.590;2022-08-01T05:58:30;95580.59;;;21.75;61.81
15405;BME280;7801;48.124;11.590;2022-08-01T06:00:57;95580.34;;;21.84;62.76
15405;BME280;7801;48.124;11.590;2022-08-01T06:03:23;95581.78;;;21.78;62.95
15405;BME280;7801;48.124;11.590;2022-08-01T06:05:49;95583.97;;;21.91;62.85
15405;BME280;7801;48.124;11.590;2022-08-01T06:08:14;95586.00;;;21.98;62.90
15405;BME280;7801;48.124;11.590;2022-08-01T06:10:39;95583.88;;;22.07;63.36
15405;BME280;7801;48.124;11.590;2022-08-01T06:13:05;95584.97;;;22.03;62.43
15405;BME280;7801;48.124;11.590;2022-08-01T06:15:31;95592.34;;;22.06;63.25
15405;BME280;7801;48.124;11.590;2022-08-01T06:17:57;95593.75;;;22.00;63.16
15405;BME280;7801;48.124;11.590;2022-08-01T06:20:23;95598.53;;;22.06;63.23
15405;BME280;7801;48.124;11.590;2022-08-01T06:22:48;95594.63;;;22.04;62.09
15405;BME280;7801;48.124;11.590;2022-08-01T06:25:13;95594.22;;;22.02;62.34
15405;BME280;7801;48.124;11.590;2022-08-01T06:27:39;95598.09;;;22.04;62.17
15405;BME280;7801;48.124;11.590;2022-08-01T06:30:05;95597.50;;;22.14;62.13
15405;BME280;7801;48.124;11.590;2022-08-01T06:32:32;95593.59;;;22.12;62.23
15405;BME280;7801;48.124;11.590;2022-08-01T06:34:58;95602.13;;;22.14;62.32
15405;BME280;7801;48.124;11.590;2022-08-01T06:37:28;95591.88;;;22.23;62.30
15405;BME280;7801;48.124;11.590;2022-08-01T06:39:54;95605.00;;;22.24;61.38
15405;BME280;7801;48.124;11.590;2022-08-01T06:42:19;95603.16;;;22.28;61.82
15405;BME280;7801;48.124;11.590;2022-08-01T06:44:45;95607.25;;;22.42;61.95
15405;BME280;7801;48.124;11.590;2022-08-01T06:47:10;95603.50;;;22.50;61.85
15405;BME280;7801;48.124;11.590;2022-08-01T06:49:35;95601.56;;;22.50;59.98
15405;BME280;7801;48.124;11.590;2022-08-01T06:52:01;95606.97;;;22.50;60.63
15405;BME280;7801;48.124;11.590;2022-08-01T06:54:26;95607.75;;;22.51;61.13
15405;BME280;7801;48.124;11.590;2022-08-01T06:56:51;95599.28;;;22.52;61.02
15405;BME280;7801;48.124;11.590;2022-08-01T06:59:17;95604.75;;;22.56;60.51
15405;BME280;7801;48.124;11.590;2022-08-01T07:01:42;95606.44;;;22.64;60.17
15405;BME280;7801;48.124;11.590;2022-08-01T07:04:07;95602.19;;;22.67;59.97
15405;BME280;7801;48.124;11.590;2022-08-01T07:06:33;95606.16;;;22.73;60.09
15405;BME280;7801;48.124;11.590;2022-08-01T07:08:58;95591.91;;;22.76;60.03
15405;BME280;7801;48.124;11.590;2022-08-01T07:11:26;95592.62;;;22.73;60.69
15405;BME280;7801;48.124;11.590;2022-08-01T07:13:51;95593.78;;;22.72;60.35
15405;BME280;7801;48.124;11.590;2022-08-01T07:16:16;95589.56;;;22.74;60.70
15405;BME280;7801;48.124;11.590;2022-08-01T07:18:42;95588.94;;;22.81;60.41
15405;BME280;7801;48.124;11.590;2022-08-01T07:21:08;95598.09;;;22.76;60.21
15405;BME280;7801;48.124;11.590;2022-08-01T07:23:34;95593.19;;;22.82;60.25
15405;BME280;7801;48.124;11.590;2022-08-01T07:25:59;95595.97;;;22.85;59.88
15405;BME280;7801;48.124;11.590;2022-08-01T07:28:27;95589.78;;;22.88;59.94
15405;BME280;7801;48.124;11.590;2022-08-01T07:30:53;95591.62;;;22.81;60.81
15405;BME280;7801;48.124;11.590;2022-08-01T07:33:18;95587.50;;;22.90;59.94
15405;BME280;7801;48.124;11.590;2022-08-01T07:35:43;95591.03;;;22.94;61.17
15405;BME280;7801;48.124;11.590;2022-08-01T07:38:09;95586.16;;;23.04;60.27
15405;BME280;7801;48.124;11.590;2022-08-01T07:40:34;95588.94;;;23.11;59.53
15405;BME280;7801;48.124;11.590;2022-08-01T07:43:01;95583.88;;;23.06;60.36
15405;BME280;7801;48.124;11.590;2022-08-01T07:45:26;95580.47;;;23.12;59.86
15405;BME280;7801;48.124;11.590;2022-08-01T07:47:52;95582.59;;;23.26;59.70
15405;BME280;7801;48.124;11.590;2022-08-01T07:50:18;95583.38;;;23.26;59.07
15405;BME280;7801;48.124;11.590;2022-08-01T07:52:44;95586.50;;;23.32;58.77
15405;BME280;7801;48.124;11.590;2022-08-01T07:55:11;95584.94;;;23.31;59.44
15405;BME280;7801;48.124;11.590;2022-08-01T07:57:37;95584.94;;;23.27;59.92
15405;BME280;7801;48.124;11.590;2022-08-01T08:00:04;95579.13;;;23.29;60.06
15405;BME280;7801;48.124;11.590;2022-08-01T08:02:32;95581.13;;;23.36;60.72
15405;BME280;7801;48.124;11.590;2022-08-01T08:04:58;95584.34;;;23.45;59.76
15405;BME280;7801;48.124;11.590;2022-08-01T08:07:23;95586.78;;;23.53;59.60
15405;BME280;7801;48.124;11.590;2022-08-01T08:09:48;95588.72;;;23.53;59.79
15405;BME280;7801;48.124;11.590;2022-08-01T08:12:14;95586.84;;;23.57;59.08
15405;BME280;7801;48.124;11.590;2022-08-01T08:14:39;95580.16;;;23.51;60.11
15405;BME280;7801;48.124;11.590;2022-08-01T08:17:05;95584.50;;;23.55;59.17
15405;BME280;7801;48.124;11.590;2022-08-01T08:19:31;95580.59;;;23.53;60.24
15405;BME280;7801;48.124;11.590;2022-08-01T08:21:59;95580.28;;;23.58;60.15
15405;BME280;7801;48.124;11.590;2022-08-01T08:24:24;95581.50;;;23.64;59.58
15405;BME280;7801;48.124;11.590;2022-08-01T08:26:54;95579.63;;;23.68;60.24
15405;BME280;7801;48.124;11.590;2022-08-01T08:29:20;95575.44;;;23.78;59.21
15405;BME280;7801;48.124;11.590;2022-08-01T08:31:47;95572.31;;;23.76;59.14
15405;BME280;7801;48.124;11.590;2022-08-01T08:34:12;95580.09;;;23.77;59.02
15405;BME280;7801;48.124;11.590;2022-08-01T08:36:38;95582.84;;;23.81;58.38
15405;BME280;7801;48.124;11.590;2022-08-01T08:39:05;95580.91;;;23.81;59.09
15405;BME280;7801;48.124;11.590;2022-08-01T08:41:33;95573.53;;;23.78;59.73
15405;BME280;7801;48.124;11.590;2022-08-01T08:44:01;95578.56;;;23.80;59.46
15405;BME280;7801;48.124;11.590;2022-08-01T08:46:27;95574.78;;;23.88;58.89
15405;BME280;7801;48.124;11.590;2022-08-01T08:48:54;95574.75;;;23.84;58.70
15405;BME280;7801;48.124;11.590;2022-08-01T08:51:20;95580.09;;;23.77;58.84
15405;BME280;7801;48.124;11.590;2022-08-01T08:53:48;95566.28;;;23.89;58.41
15405;BME280;7801;48.124;11.590;2022-08-01T08:56:20;95568.59;;;23.87;57.55
15405;BME280;7801;48.124;11.590;2022-08-01T08:58:46;95577.91;;;23.93;56.85
15405;BME280;7801;48.124;11.590;2022-08-01T09:01:12;95568.22;;;23.89;57.93
15405;BME280;7801;48.124;11.590;2022-08-01T09:03:39;95578.75;;;23.97;57.82
15405;BME280;7801;48.124;11.590;2022-08-01T09:06:05;95573.31;;;23.97;58.06
15405;BME280;7801;48.124;11.590;2022-08-01T09:08:33;95573.41;;;24.05;58.00
15405;BME280;7801;48.124;11.590;2022-08-01T09:10:58;95564.13;;;24.06;57.87
15405;BME280;7801;48.124;11.590;2022-08-01T09:13:24;95565.22;;;24.01;58.13
15405;BME280;7801;48.124;11.590;2022-08-01T09:15:54;95566.03;;;24.05;59.15
15405;BME280;7801;48.124;11.590;2022-08-01T09:26:04;95568.59;;;24.28;56.81
15405;BME280;7801;48.124;11.590;2022-08-01T09:28:30;95565.97;;;24.39;57.53
15405;BME280;7801;48.124;11.590;2022-08-01T09:30:56;95577.66;;;24.46;56.86
15405;BME280;7801;48.124;11.590;2022-08-01T09:33:22;95565.31;;;24.52;55.71
15405;BME280;7801;48.124;11.590;2022-08-01T09:35:55;95567.25;;;24.55;56.08
15405;BME280;7801;48.124;11.590;2022-08-01T09:38:24;95566.09;;;24.56;56.37
15405;BME280;7801;48.124;11.590;2022-08-01T09:40:59;95564.25;;;24.67;55.00
15405;BME280;7801;48.124;11.590;2022-08-01T09:43:27;95554.12;;;24.64;53.70
15405;BME280;7801;48.124;11.590;2022-08-01T09:45:53;95563.84;;;24.65;54.68
15405;BME280;7801;48.124;11.590;2022-08-01T09:48:20;95552.19;;;24.65;56.05
15405;BME280;7801;48.124;11.590;2022-08-01T09:50:48;95552.63;;;24.71;54.53
15405;BME280;7801;48.124;11.590;2022-08-01T09:53:15;95565.06;;;24.79;54.23
15405;BME280;7801;48.124;11.590;2022-08-01T09:55:41;95557.72;;;24.83;54.29
15405;BME280;7801;48.124;11.590;2022-08-01T09:58:07;95560.88;;;24.88;53.40
15405;BME280;7801;48.124;11.590;2022-08-01T10:00:34;95556.22;;;24.89;53.73
15405;BME280;7801;48.124;11.590;2022-08-01T10:03:21;95557.06;;;24.96;53.60
15405;BME280;7801;48.124;11.590;2022-08-01T10:05:48;95555.13;;;24.97;52.83
15405;BME280;7801;48.124;11.590;2022-08-01T10:08:13;95554.75;;;25.02;53.47
15405;BME280;7801;48.124;11.590;2022-08-01T10:10:40;95549.72;;;25.04;52.62
15405;BME280;7801;48.124;11.590;2022-08-01T10:13:05;95543.16;;;25.05;53.30
15405;BME280;7801;48.124;11.590;2022-08-01T10:15:31;95550.16;;;25.17;53.09
15405;BME280;7801;48.124;11.590;2022-08-01T10:17:59;95546.31;;;25.21;53.07
15405;BME280;7801;48.124;11.590;2022-08-01T10:20:31;95537.81;;;25.30;53.08
15405;BME280;7801;48.124;11.590;2022-08-01T10:22:59;95542.87;;;25.31;53.45
15405;BME280;7801;48.124;11.590;2022-08-01T10:25:28;95546.00;;;25.41;52.71
15405;BME280;7801;48.124;11.590;2022-08-01T10:27:54;95547.56;;;25.42;52.67
15405;BME280;7801;48.124;11.590;2022-08-01T10:30:20;95539.38;;;25.38;53.11
15405;BME280;7801;48.124;11.590;2022-08-01T10:32:46;95547.97;;;25.44;51.88
15405;BME280;7801;48.124;11.590;2022-08-01T10:35:13;95546.41;;;25.46;51.32
15405;BME280;7801;48.124;11.590;2022-08-01T10:37:43;95536.34;;;25.50;51.67
15405;BME280;7801;48.124;11.590;2022-08-01T10:40:14;95528.94;;;25.47;51.75
15405;BME280;7801;48.124;11.590;2022-08-01T10:42:44;95529.38;;;25.53;52.16
15405;BME280;7801;48.124;11.590;2022-08-01T10:45:12;95530.12;;;25.57;52.15
15405;BME280;7801;48.124;11.590;2022-08-01T10:47:42;95538.69;;;25.52;51.35
15405;BME280;7801;48.124;11.590;2022-08-01T10:50:27;95536.00;;;25.62;52.02
15405;BME280;7801;48.124;11.590;2022-08-01T10:53:18;95535.56;;;25.60;51.48
15405;BME280;7801;48.124;11.590;2022-08-01T10:58:28;95533.25;;;25.59;51.33
15405;BME280;7801;48.124;11.590;2022-08-01T11:03:56;95519.63;;;25.45;52.46
15405;BME280;7801;48.124;11.590;2022-08-01T11:07:11;95517.78;;;25.74;50.22
15405;BME280;7801;48.124;11.590;2022-08-01T11:11:59;95518.56;;;25.74;51.24
15405;BME280;7801;48.124;11.590;2022-08-01T11:14:25;95509.25;;;25.75;51.02
15405;BME280;7801;48.124;11.590;2022-08-01T11:16:51;95513.91;;;25.78;51.70
15405;BME280;7801;48.124;11.590;2022-08-01T11:19:16;95515.47;;;25.72;51.98
15405;BME280;7801;48.124;11.590;2022-08-01T11:21:57;95517.38;;;25.68;51.34
15405;BME280;7801;48.124;11.590;2022-08-01T11:27:25;95506.91;;;25.66;50.99
15405;BME280;7801;48.124;11.590;2022-08-01T11:35:16;95496.81;;;25.81;49.34
15405;BME280;7801;48.124;11.590;2022-08-01T11:37:43;95506.13;;;25.84;49.51
15405;BME280;7801;48.124;11.590;2022-08-01T11:40:34;95494.47;;;25.83;50.06
15405;BME280;7801;48.124;11.590;2022-08-01T11:43:29;95496.44;;;25.86;49.15
15405;BME280;7801;48.124;11.590;2022-08-01T11:45:55;95499.97;;;25.97;48.99
15405;BME280;7801;48.124;11.590;2022-08-01T11:48:23;95500.31;;;25.78;50.82
15405;BME280;7801;48.124;11.590;2022-08-01T11:50:56;95492.91;;;25.68;49.64
15405;BME280;7801;48.124;11.590;2022-08-01T11:53:22;95499.13;;;25.79;49.95
15405;BME280;7801;48.124;11.590;2022-08-01T11:55:49;95491.38;;;25.67;50.19
15405;BME280;7801;48.124;11.590;2022-08-01T11:58:19;95488.97;;;25.58;50.71
15405;BME280;7801;48.124;11.590;2022-08-01T12:00:55;95490.63;;;25.77;50.25
15405;BME280;7801;48.124;11.590;2022-08-01T12:05:52;95499.53;;;25.85;49.22
15405;BME280;7801;48.124;11.590;2022-08-01T12:08:28;95510.03;;;25.93;48.64
15405;BME280;7801;48.124;11.590;2022-08-01T12:10:54;95487.88;;;25.98;46.93
15405;BME280;7801;48.124;11.590;2022-08-01T12:13:20;95493.72;;;25.86;48.07
15405;BME280;7801;48.124;11.590;2022-08-01T12:15:47;95481.28;;;25.99;48.18
15405;BME280;7801;48.124;11.590;2022-08-01T12:18:13;95489.47;;;26.14;46.91
15405;BME280;7801;48.124;11.590;2022-08-01T12:20:40;95488.28;;;26.11;46.59
15405;BME280;7801;48.124;11.590;2022-08-01T12:23:08;95481.28;;;26.03;47.26
15405;BME280;7801;48.124;11.590;2022-08-01T12:25:35;95483.25;;;26.17;45.69
15405;BME280;7801;48.124;11.590;2022-08-01T12:28:02;95476.63;;;26.14;45.82
15405;BME280;7801;48.124;11.590;2022-08-01T12:30:29;95469.66;;;25.95;45.67
15405;BME280;7801;48.124;11.590;2022-08-01T12:32:57;95475.47;;;25.97;45.87
15405;BME280;7801;48.124;11.590;2022-08-01T12:35:27;95464.59;;;26.08;45.81
15405;BME280;7801;48.124;11.590;2022-08-01T12:37:55;95461.09;;;26.00;46.45
15405;BME280;7801;48.124;11.590;2022-08-01T12:40:26;95467.69;;;26.17;45.27
15405;BME280;7801;48.124;11.590;2022-08-01T12:43:03;95461.88;;;26.15;46.01
15405;BME280;7801;48.124;11.590;2022-08-01T12:45:38;95463.44;;;26.13;45.18
15405;BME280;7801;48.124;11.590;2022-08-01T12:48:09;95458.75;;;26.02;45.67
15405;BME280;7801;48.124;11.590;2022-08-01T12:50:38;95450.59;;;25.99;44.98
15405;BME280;7801;48.124;11.590;2022-08-01T12:53:04;95457.59;;;26.03;45.05
15405;BME280;7801;48.124;11.590;2022-08-01T12:55:29;95449.41;;;26.28;44.28
15405;BME280;7801;48.124;11.590;2022-08-01T12:58:06;95447.88;;;26.31;45.87
15405;BME280;7801;48.124;11.590;2022-08-01T13:00:34;95457.22;;;26.37;44.67
15405;BME280;7801;48.124;11.590;2022-08-01T13:03:10;95436.16;;;26.55;43.82
15405;BME280;7801;48.124;11.590;2022-08-01T13:08:29;95450.50;;;26.66;43.17
15405;BME280;7801;48.124;11.590;2022-08-01T13:11:09;95442.41;;;26.52;45.06
15405;BME280;7801;48.124;11.590;2022-08-01T13:13:50;95449.00;;;26.48;44.86
15405;BME280;7801;48.124;11.590;2022-08-01T13:16:22;95443.19;;;26.42;45.33
15405;BME280;7801;48.124;11.590;2022-08-01T13:18:49;95442.44;;;26.38;43.89
15405;BME280;7801;48.124;11.590;2022-08-01T13:21:29;95440.06;;;26.40;43.69
15405;BME280;7801;48.124;11.590;2022-08-01T13:26:51;95444.00;;;26.32;44.08
15405;BME280;7801;48.124;11.590;2022-08-01T13:29:21;95437.75;;;26.28;44.82
15405;BME280;7801;48.124;11.590;2022-08-01T13:31:49;95456.81;;;26.03;46.45
15405;BME280;7801;48.124;11.590;2022-08-01T13:34:15;95446.31;;;25.84;47.23
15405;BME280;7801;48.124;11.590;2022-08-01T13:36:41;95454.88;;;25.79;47.09
15405;BME280;7801;48.124;11.590;2022-08-01T13:39:07;95449.03;;;25.62;46.54
15405;BME280;7801;48.124;11.590;2022-08-01T13:41:52;95442.78;;;25.62;46.80
15405;BME280;7801;48.124;11.590;2022-08-01T13:44:18;95444.38;;;25.63;46.89
15405;BME280;7801;48.124;11.590;2022-08-01T13:46:44;95446.34;;;25.70;46.92